Time;durP1;ratioP1;P1;durP2;ratioP2;P2;SDS_P1;SDS_P2;PMS_P1;PMS_P2;Temp;Humidity;BMP_temperature;BMP_pressure;BME280_temperature;BME280_humidity;BME280_pressure;Samples;Min_cycle;Max_cycle;Signal;HPM_P1;HPM_P2
2022/05/05 00:02:04;;;;;;;21.35;9.32;;;;;;;9.63;92.34;101836.66;5133403;28;20041;-75
2022/05/05 00:04:29;;;;;;;18.02;8.52;;;;;;;9.56;92.84;101849.09;5132679;28;20043;-75
2022/05/05 00:06:54;;;;;;;21.63;9.33;;;;;;;9.43;92.54;101830.19;5133434;28;20019;-75
2022/05/05 00:09:19;;;;;;;17.90;9.25;;;;;;;9.35;93.63;101840.13;5114403;28;20316;-75
2022/05/05 00:14:31;;;;;;;19.08;9.68;;;;;;;9.30;94.13;101848.69;5132642;28;20346;-75
2022/05/05 00:16:58;;;;;;;19.40;8.63;;;;;;;9.26;93.33;101834.03;5133204;28;20062;-75
2022/05/05 00:19:25;;;;;;;21.50;9.45;;;;;;;9.38;92.96;101847.75;5133176;28;20479;-76
2022/05/05 00:21:50;;;;;;;14.35;8.20;;;;;;;9.44;93.65;101842.53;5114226;28;20043;-75
2022/05/05 00:24:19;;;;;;;14.57;8.35;;;;;;;9.40;93.84;101837.72;5133150;28;20137;-75
2022/05/05 00:26:44;;;;;;;16.50;7.95;;;;;;;9.36;94.18;101852.47;5132166;28;20559;-75
2022/05/05 00:29:10;;;;;;;23.88;9.73;;;;;;;9.31;94.98;101850.34;5133000;28;20031;-76
2022/05/05 00:31:35;;;;;;;19.77;9.32;;;;;;;9.24;94.43;101844.03;5114644;28;20433;-75
2022/05/05 00:34:01;;;;;;;18.00;9.05;;;;;;;9.15;95.19;101843.28;5131971;28;20054;-75
2022/05/05 00:36:26;;;;;;;21.17;8.75;;;;;;;9.04;95.56;101834.91;5114565;28;20083;-76
2022/05/05 00:38:51;;;;;;;22.02;10.48;;;;;;;8.97;96.57;101848.94;5131343;27;20092;-75
2022/05/05 00:41:17;;;;;;;19.83;10.02;;;;;;;8.93;96.84;101847.63;5114488;28;20386;-75
2022/05/05 00:43:42;;;;;;;15.63;9.10;;;;;;;8.87;97.43;101834.19;5132752;28;20039;-75
2022/05/05 00:46:07;;;;;;;20.13;9.38;;;;;;;8.83;97.28;101835.53;5113770;28;20285;-76
2022/05/05 00:48:33;;;;;;;24.10;9.88;;;;;;;8.76;97.99;101831.94;5114296;28;20033;-75
2022/05/05 00:50:58;;;;;;;17.02;9.68;;;;;;;8.70;98.07;101833.47;5131921;28;20039;-75
2022/05/05 00:53:24;;;;;;;20.35;10.73;;;;;;;8.67;98.31;101840.00;5114116;28;20364;-75
2022/05/05 00:55:55;;;;;;;22.45;10.48;;;;;;;8.63;98.68;101835.16;5113498;28;20035;-76
2022/05/05 00:58:22;;;;;;;23.17;10.52;;;;;;;8.58;99.29;101834.88;5132466;28;20038;-75
2022/05/05 01:00:48;;;;;;;21.25;10.88;;;;;;;8.50;99.87;101832.28;5132534;28;20107;-75
2022/05/05 01:03:15;;;;;;;24.42;10.35;;;;;;;8.41;100.00;101828.00;5131665;28;20063;-76
2022/05/05 01:05:40;;;;;;;21.58;10.50;;;;;;;8.36;100.00;101839.16;5132500;28;20035;-76
2022/05/05 01:08:06;;;;;;;17.52;9.55;;;;;;;8.31;100.00;101833.50;5131641;28;20372;-75
2022/05/05 01:13:53;;;;;;;19.55;10.40;;;;;;;8.41;99.95;101836.00;5131773;28;20480;-75
2022/05/05 01:16:18;;;;;;;20.10;10.35;;;;;;;8.39;100.00;101838.84;5132293;28;20113;-75
2022/05/05 01:18:44;;;;;;;22.45;10.30;;;;;;;8.33;100.00;101835.00;5132369;28;20111;-76
2022/05/05 01:21:10;;;;;;;19.95;10.32;;;;;;;8.31;100.00;101836.16;5131614;28;20039;-75
2022/05/05 01:23:36;;;;;;;20.10;10.82;;;;;;;8.30;100.00;101834.50;5132384;28;20058;-75
2022/05/05 01:28:45;;;;;;;19.80;10.65;;;;;;;8.22;100.00;101832.72;5132279;28;20034;-75
2022/05/05 01:31:11;;;;;;;21.65;10.90;;;;;;;8.21;100.00;101830.22;5131263;28;20043;-76
2022/05/05 01:33:37;;;;;;;23.55;11.00;;;;;;;8.22;100.00;101835.38;5132189;28;20118;-75
2022/05/05 01:36:03;;;;;;;19.83;9.75;;;;;;;8.25;100.00;101834.22;5132079;28;20364;-75
2022/05/05 01:38:37;;;;;;;24.23;10.43;;;;;;;8.32;99.74;101835.16;5131317;28;20076;-75
2022/05/05 01:41:05;;;;;;;19.85;9.93;;;;;;;8.33;100.00;101829.69;5132105;28;20019;-75
2022/05/05 01:43:30;;;;;;;23.77;10.82;;;;;;;8.33;100.00;101829.69;5112945;28;20051;-76
2022/05/05 01:49:17;;;;;;;18.38;10.05;;;;;;;8.43;99.13;101834.00;5132226;28;20338;-75
2022/05/05 01:51:43;;;;;;;21.50;10.63;;;;;;;8.42;99.48;101833.16;5135422;27;20031;-76
2022/05/05 01:54:09;;;;;;;17.33;9.27;;;;;;;8.48;99.18;101834.28;5135433;28;20066;-76
2022/05/05 01:56:34;;;;;;;22.00;10.63;;;;;;;8.52;98.85;101833.75;5116641;28;20500;-75
2022/05/05 01:58:59;;;;;;;17.63;9.73;;;;;;;8.46;99.23;101829.13;5135473;28;20080;-75
2022/05/05 02:01:24;;;;;;;17.93;10.07;;;;;;;8.46;100.00;101830.97;5134590;28;20043;-76
2022/05/05 02:03:50;;;;;;;20.07;9.87;;;;;;;8.43;100.00;101832.16;5135374;28;20641;-76
2022/05/05 02:06:16;;;;;;;18.02;9.65;;;;;;;8.42;100.00;101832.31;5134754;28;20273;-75
2022/05/05 02:08:41;;;;;;;19.80;10.07;;;;;;;8.40;100.00;101831.69;5135151;28;20055;-76
2022/05/05 02:11:06;;;;;;;20.05;10.90;;;;;;;8.40;100.00;101843.16;5116822;28;20035;-75
2022/05/05 02:13:32;;;;;;;18.30;10.23;;;;;;;8.35;100.00;101835.66;5116068;28;20039;-75
2022/05/05 02:15:58;;;;;;;22.75;11.73;;;;;;;8.27;100.00;101834.84;5116978;28;20019;-76
2022/05/05 02:18:23;;;;;;;22.63;11.55;;;;;;;8.32;100.00;101843.16;5134226;28;20043;-76
2022/05/05 02:20:48;;;;;;;22.10;12.68;;;;;;;8.36;100.00;101847.97;5135096;28;20159;-75
2022/05/05 02:23:15;;;;;;;19.15;11.23;;;;;;;8.37;100.00;101841.66;5116538;28;20114;-76
2022/05/05 02:25:40;;;;;;;22.80;10.88;;;;;;;8.43;100.00;101839.31;5134200;28;20047;-76
2022/05/05 02:28:06;;;;;;;22.97;11.10;;;;;;;8.46;100.00;101845.13;5135206;28;20030;-76
2022/05/05 02:30:31;;;;;;;21.08;11.05;;;;;;;8.39;100.00;101833.50;5134062;28;20296;-75
2022/05/05 02:32:57;;;;;;;21.80;11.68;;;;;;;8.54;100.00;101854.91;5116489;28;20097;-76
2022/05/05 02:35:23;;;;;;;19.80;11.55;;;;;;;8.59;100.00;101849.88;5134937;28;20098;-75
2022/05/05 02:40:33;;;;;;;21.17;10.82;;;;;;;8.79;100.00;101845.75;5135045;28;20038;-76
2022/05/05 02:42:59;;;;;;;20.45;10.88;;;;;;;8.85;100.00;101855.69;5133876;28;20031;-76
2022/05/05 02:45:25;;;;;;;20.63;10.60;;;;;;;8.86;100.00;101857.34;5116372;28;20114;-75
2022/05/05 02:47:51;;;;;;;20.50;10.60;;;;;;;8.86;99.85;101852.00;5115441;28;20459;-75
2022/05/05 02:50:17;;;;;;;18.80;9.90;;;;;;;8.87;99.80;101853.69;5134421;28;20054;-76
2022/05/05 02:52:43;;;;;;;18.65;10.45;;;;;;;8.85;100.00;101853.03;5115964;28;20391;-75
2022/05/05 02:55:08;;;;;;;20.40;10.52;;;;;;;8.79;100.00;101851.06;5133665;28;20039;-75
2022/05/05 03:00:55;;;;;;;19.15;10.45;;;;;;;8.68;100.00;101844.31;5134758;28;20394;-75
2022/05/05 03:03:20;;;;;;;23.00;11.35;;;;;;;8.54;100.00;101831.75;5133788;27;20027;-75
2022/05/05 03:05:46;;;;;;;19.92;10.55;;;;;;;8.49;100.00;101838.59;5133533;28;20108;-75
2022/05/05 03:08:11;;;;;;;19.70;10.48;;;;;;;8.39;100.00;101844.16;5116064;28;20118;-75
2022/05/05 03:10:37;;;;;;;21.45;11.50;;;;;;;8.23;100.00;101842.38;5134331;28;20023;-76
2022/05/05 03:13:02;;;;;;;22.83;10.70;;;;;;;8.13;100.00;101833.78;5133385;28;20061;-76
2022/05/05 03:15:28;;;;;;;19.20;10.70;;;;;;;8.23;100.00;101847.69;5134270;28;20343;-76
2022/05/05 03:17:53;;;;;;;19.77;10.95;;;;;;;8.33;100.00;101853.66;5133337;28;20554;-76
2022/05/05 03:20:19;;;;;;;21.67;10.68;;;;;;;8.38;100.00;101843.34;5115750;28;20497;-75
2022/05/05 03:22:44;;;;;;;21.90;10.80;;;;;;;8.43;100.00;101839.31;5115426;28;20031;-75
2022/05/05 03:25:10;;;;;;;17.58;10.32;;;;;;;8.42;100.00;101843.81;5133549;28;20135;-76
2022/05/05 03:27:36;;;;;;;24.10;11.88;;;;;;;8.38;100.00;101848.66;5134029;28;20027;-76
2022/05/05 03:30:02;;;;;;;23.05;11.20;;;;;;;8.31;100.00;101854.81;5133224;28;20047;-75
2022/05/05 03:32:28;;;;;;;17.25;11.10;;;;;;;8.26;100.00;101857.19;5133945;28;20035;-75
2022/05/05 03:34:53;;;;;;;18.52;10.98;;;;;;;8.24;100.00;101857.34;5133027;28;20039;-76
2022/05/05 03:37:19;;;;;;;20.02;11.32;;;;;;;8.25;100.00;101858.19;5133873;28;20030;-75
2022/05/05 03:39:45;;;;;;;21.50;11.13;;;;;;;8.19;100.00;101856.22;5133881;28;20033;-76
2022/05/05 03:42:10;;;;;;;17.75;10.68;;;;;;;8.20;100.00;101858.72;5114691;28;20065;-75
2022/05/05 03:44:35;;;;;;;23.60;10.98;;;;;;;8.18;100.00;101858.06;5133959;28;20463;-75
2022/05/05 03:47:01;;;;;;;18.52;11.10;;;;;;;8.14;100.00;101853.25;5114463;28;20046;-76
2022/05/05 03:49:26;;;;;;;23.27;11.48;;;;;;;8.09;100.00;101853.75;5115255;28;20490;-75
2022/05/05 03:51:51;;;;;;;17.83;10.45;;;;;;;8.04;100.00;101861.41;5133575;28;20070;-75
2022/05/05 03:54:16;;;;;;;23.37;12.90;;;;;;;7.95;100.00;101862.47;5132767;28;20388;-75
2022/05/05 03:56:42;;;;;;;22.63;12.00;;;;;;;7.84;100.00;101854.84;5115033;28;20296;-75
2022/05/05 03:59:07;;;;;;;20.80;10.98;;;;;;;7.86;100.00;101861.66;5114527;28;20281;-75
2022/05/05 04:01:33;;;;;;;21.58;11.68;;;;;;;7.98;100.00;101862.94;5133519;28;20038;-75
2022/05/05 04:03:58;;;;;;;26.40;10.65;;;;;;;8.08;100.00;101868.91;5133393;28;20025;-75
2022/05/05 04:06:23;;;;;;;20.13;11.13;;;;;;;8.20;100.00;101872.03;5114424;28;20124;-75
2022/05/05 04:08:49;;;;;;;26.20;12.15;;;;;;;8.32;100.00;101881.28;5133355;28;20019;-75
2022/05/05 04:11:14;;;;;;;20.25;10.85;;;;;;;8.36;100.00;101874.63;5132565;28;20411;-76
2022/05/05 04:13:40;;;;;;;23.38;11.98;;;;;;;8.33;100.00;101874.97;5132139;27;20426;-76
2022/05/05 04:16:05;;;;;;;23.42;11.30;;;;;;;8.36;100.00;101879.97;5114583;28;20071;-75
2022/05/05 04:18:32;;;;;;;20.10;11.63;;;;;;;8.43;100.00;101879.28;5132758;28;20047;-75
2022/05/05 04:20:58;;;;;;;17.77;10.40;;;;;;;8.51;100.00;101884.56;5133147;28;20027;-75
2022/05/05 04:23:23;;;;;;;22.42;11.88;;;;;;;8.59;100.00;101881.84;5114130;28;20157;-76
2022/05/05 04:25:49;;;;;;;18.38;11.00;;;;;;;8.63;100.00;101889.31;5133106;28;20023;-76
2022/05/05 04:28:15;;;;;;;20.83;11.00;;;;;;;8.71;100.00;101899.13;5132335;28;20051;-76
2022/05/05 04:30:41;;;;;;;19.83;11.48;;;;;;;8.72;100.00;101891.97;5133004;28;20043;-76
2022/05/05 04:33:07;;;;;;;22.63;11.88;;;;;;;8.79;100.00;101890.25;5132850;28;20024;-75
2022/05/05 04:35:34;;;;;;;24.55;12.98;;;;;;;8.81;100.00;101901.56;5132429;28;20122;-75
2022/05/05 04:37:59;;;;;;;18.77;11.52;;;;;;;8.85;100.00;101898.38;5132768;28;20058;-76
2022/05/05 04:40:25;;;;;;;22.30;12.02;;;;;;;8.89;100.00;101904.16;5132026;28;20103;-76
2022/05/05 04:42:50;;;;;;;23.13;12.18;;;;;;;8.92;100.00;101901.16;5132870;28;20055;-75
2022/05/05 04:45:15;;;;;;;23.02;12.18;;;;;;;8.96;100.00;101908.66;5132717;28;20119;-75
2022/05/05 04:47:42;;;;;;;19.45;12.48;;;;;;;8.93;100.00;101900.97;5131958;27;20042;-76
2022/05/05 04:50:08;;;;;;;25.20;11.98;;;;;;;8.92;100.00;101901.97;5132683;28;20027;-76
2022/05/05 04:52:33;;;;;;;24.77;11.27;;;;;;;8.98;100.00;101901.28;5131782;28;20043;-75
2022/05/05 04:54:59;;;;;;;21.58;11.48;;;;;;;9.06;100.00;101904.91;5132758;28;20062;-75
2022/05/05 04:57:25;;;;;;;25.13;11.93;;;;;;;9.20;100.00;101914.78;5113630;28;20027;-75
2022/05/05 04:59:50;;;;;;;23.80;12.55;;;;;;;9.30;100.00;101915.41;5132307;28;20051;-76
2022/05/05 05:02:16;;;;;;;22.30;11.43;;;;;;;9.41;100.00;101917.63;5132555;28;20023;-76
2022/05/05 05:04:41;;;;;;;20.33;11.70;;;;;;;9.47;100.00;101919.56;5131710;28;20428;-75
2022/05/05 05:07:06;;;;;;;24.55;13.20;;;;;;;9.54;100.00;101912.53;5132410;28;20059;-76
2022/05/05 05:09:31;;;;;;;22.67;13.02;;;;;;;9.69;100.00;101925.06;5131661;28;20091;-76
2022/05/05 05:11:57;;;;;;;22.48;11.73;;;;;;;9.83;100.00;101924.25;5132364;28;20066;-75
2022/05/05 05:14:22;;;;;;;22.50;12.63;;;;;;;9.98;100.00;101929.63;5113815;28;20035;-76
2022/05/05 05:16:47;;;;;;;24.15;12.85;;;;;;;10.10;99.18;101933.47;5131578;28;20111;-76
2022/05/05 05:19:13;;;;;;;22.98;13.38;;;;;;;10.28;98.13;101925.13;5132215;28;20488;-76
2022/05/05 05:21:38;;;;;;;24.48;13.93;;;;;;;10.40;97.22;101929.81;5131370;28;20047;-75
2022/05/05 05:24:04;;;;;;;23.70;12.77;;;;;;;10.53;97.20;101932.69;5113861;28;20364;-76
2022/05/05 05:26:29;;;;;;;20.50;12.02;;;;;;;10.68;96.81;101935.31;5131769;27;20298;-76
2022/05/05 05:28:55;;;;;;;23.20;14.05;;;;;;;10.92;96.22;101946.69;5131361;28;20057;-75
2022/05/05 05:31:21;;;;;;;20.17;12.85;;;;;;;11.16;95.87;101943.66;5113871;28;20043;-76
2022/05/05 05:33:47;;;;;;;22.63;12.35;;;;;;;11.43;93.71;101944.75;5131261;28;20071;-75
2022/05/05 05:36:13;;;;;;;23.60;12.02;;;;;;;11.73;92.59;101945.41;5132022;28;20073;-75
2022/05/05 05:38:38;;;;;;;24.75;12.55;;;;;;;11.92;90.47;101934.06;5113534;28;20038;-75
2022/05/05 05:41:03;;;;;;;21.93;12.80;;;;;;;12.19;88.01;101947.63;5113063;28;20463;-76
2022/05/05 05:43:28;;;;;;;23.00;13.00;;;;;;;12.34;86.86;101938.41;5113541;28;20276;-76
2022/05/05 05:45:54;;;;;;;20.33;12.60;;;;;;;12.64;86.05;101946.19;5112914;28;20349;-75
2022/05/05 05:51:41;;;;;;;22.48;14.23;;;;;;;13.93;80.90;101955.72;5131898;28;20275;-76
2022/05/05 05:54:07;;;;;;;25.17;13.48;;;;;;;14.49;77.44;101949.00;5131823;28;20023;-76
2022/05/05 05:56:33;;;;;;;21.15;13.93;;;;;;;15.21;73.58;101957.75;5131293;28;20531;-76
2022/05/05 05:59:01;;;;;;;25.63;13.57;;;;;;;15.79;70.51;101951.09;5131511;28;20149;-76
2022/05/05 06:03:53;;;;;;;28.63;14.85;;;;;;;16.33;68.88;101957.63;5131825;28;20027;-76
2022/05/05 06:04:12;;;;;;;22.75;14.48;;;;;;;16.79;68.25;101963.56;5130805;28;20061;-76
2022/05/05 06:06:38;;;;;;;28.10;14.90;;;;;;;17.26;64.24;101962.66;5131637;28;20023;-76
2022/05/05 06:09:04;;;;;;;23.67;14.77;;;;;;;17.77;62.45;101963.16;5130805;28;20292;-76
2022/05/05 06:11:29;;;;;;;24.67;15.18;;;;;;;18.24;59.99;101964.78;5131694;28;20062;-76
2022/05/05 06:13:54;;;;;;;25.37;15.60;;;;;;;18.71;57.71;101964.72;5131571;28;20063;-76
2022/05/05 06:16:20;;;;;;;24.33;15.87;;;;;;;19.26;56.13;101969.53;5130648;28;20793;-76
2022/05/05 06:18:46;;;;;;;24.40;14.65;;;;;;;19.83;54.26;101963.19;5131496;28;20352;-76
2022/05/05 06:21:11;;;;;;;23.07;15.37;;;;;;;19.99;51.46;101960.47;5112382;28;20056;-76
2022/05/05 06:23:37;;;;;;;24.33;15.33;;;;;;;19.76;51.13;101966.06;5112967;28;20633;-76
2022/05/05 06:26:05;;;;;;;27.17;14.93;;;;;;;19.57;51.82;101961.94;5130986;28;20276;-76
2022/05/05 06:28:30;;;;;;;22.05;15.18;;;;;;;19.58;52.07;101967.13;5131060;28;20032;-76
2022/05/05 06:30:56;;;;;;;20.65;14.77;;;;;;;19.40;53.04;101967.34;5131246;28;20080;-76
2022/05/05 06:33:21;;;;;;;25.30;15.75;;;;;;;18.97;52.06;101968.75;5130376;28;20067;-76
2022/05/05 06:35:47;;;;;;;25.58;15.85;;;;;;;18.71;53.95;101978.25;5131322;27;20034;-76
2022/05/05 06:38:12;;;;;;;28.20;14.88;;;;;;;18.42;52.84;101966.50;5114735;28;20389;-76
2022/05/05 06:40:37;;;;;;;18.33;14.40;;;;;;;18.95;53.03;101975.47;5116294;28;20039;-76
2022/05/05 06:43:03;;;;;;;23.85;15.93;;;;;;;19.59;50.76;101976.09;5134689;28;20277;-77
2022/05/05 06:45:29;;;;;;;23.42;15.15;;;;;;;20.39;49.77;101986.53;5133745;28;20070;-76
2022/05/05 06:47:58;;;;;;;25.27;14.25;;;;;;;21.15;46.75;101973.06;5116211;28;20113;-76
2022/05/05 06:50:24;;;;;;;23.25;14.07;;;;;;;21.96;44.06;101977.28;5133832;28;20501;-77
2022/05/05 06:52:49;;;;;;;23.15;14.60;;;;;;;22.70;42.83;101978.25;5134552;28;20027;-77
2022/05/05 06:58:36;;;;;;;22.67;16.02;;;;;;;23.70;38.11;101976.81;5134445;28;20446;-77
2022/05/05 07:03:45;;;;;;;20.35;14.60;;;;;;;23.41;38.14;101983.88;5133980;28;20156;-77
2022/05/05 07:06:11;;;;;;;23.47;15.33;;;;;;;22.95;39.27;101980.25;5116128;28;20118;-77
2022/05/05 07:11:21;;;;;;;26.30;17.52;;;;;;;21.79;43.15;101994.88;5134672;28;20283;-75
2022/05/05 07:13:47;;;;;;;28.15;18.75;;;;;;;21.71;43.17;101993.47;5133361;28;20039;-76
2022/05/05 07:16:12;;;;;;;25.67;17.35;;;;;;;21.98;43.37;101996.13;5134204;28;20035;-76
2022/05/05 07:18:38;;;;;;;27.02;18.02;;;;;;;22.31;43.00;102010.53;5134313;28;20072;-76
2022/05/05 07:24:25;;;;;;;34.35;22.88;;;;;;;22.21;43.66;102011.25;5133985;28;20425;-76
2022/05/05 07:26:50;;;;;;;31.65;21.52;;;;;;;21.98;44.05;102008.91;5133247;28;20110;-76
2022/05/05 07:29:16;;;;;;;35.70;22.67;;;;;;;21.68;44.71;102014.91;5115604;28;20091;-77
2022/05/05 07:31:41;;;;;;;38.55;23.33;;;;;;;21.60;44.78;102011.59;5114714;28;20288;-76
2022/05/05 07:34:07;;;;;;;33.72;21.95;;;;;;;21.83;46.37;102021.31;5133984;28;20042;-76
2022/05/05 07:36:32;;;;;;;32.38;22.27;;;;;;;21.92;46.10;102022.47;5133779;28;20027;-76
2022/05/05 07:38:57;;;;;;;34.40;23.10;;;;;;;21.91;45.16;102014.56;5114886;28;20543;-77
2022/05/05 07:41:23;;;;;;;36.28;22.73;;;;;;;22.01;45.12;102025.56;5115354;28;20023;-77
2022/05/05 07:43:50;;;;;;;31.75;21.58;;;;;;;21.84;46.22;102008.53;5114660;28;20043;-77
2022/05/05 07:46:17;;;;;;;30.85;21.63;;;;;;;22.14;44.59;102033.28;5133866;28;20027;-76
2022/05/05 07:48:43;;;;;;;31.35;21.13;;;;;;;22.29;43.87;102029.84;5115034;28;20475;-76
2022/05/05 07:51:09;;;;;;;32.80;22.15;;;;;;;22.51;44.78;102022.31;5132844;28;20096;-76
2022/05/05 07:53:34;;;;;;;38.75;24.33;;;;;;;22.47;43.40;102034.03;5114984;28;20035;-76
2022/05/05 07:55:59;;;;;;;34.80;23.40;;;;;;;22.24;44.16;102030.63;5114579;28;20045;-77
2022/05/05 07:58:25;;;;;;;35.83;22.70;;;;;;;22.38;43.30;102038.34;5133525;28;20273;-76
2022/05/05 08:00:50;;;;;;;33.93;22.77;;;;;;;22.82;43.01;102039.69;5132905;28;20276;-77
2022/05/05 08:03:15;;;;;;;34.67;22.87;;;;;;;22.71;43.44;102039.88;5133018;28;20273;-76
2022/05/05 08:05:40;;;;;;;33.07;22.30;;;;;;;22.57;42.52;102047.75;5115143;28;20288;-76
2022/05/05 08:08:06;;;;;;;38.57;23.77;;;;;;;22.45;43.54;102042.47;5132570;28;20686;-77
2022/05/05 08:10:32;;;;;;;39.53;24.40;;;;;;;22.25;43.94;102045.06;5133363;28;20035;-77
2022/05/05 08:12:57;;;;;;;37.72;24.95;;;;;;;21.93;45.66;102043.19;5114077;28;20063;-76
2022/05/05 08:15:22;;;;;;;38.45;25.27;;;;;;;21.92;44.88;102049.72;5133282;28;20102;-77
2022/05/05 08:17:48;;;;;;;35.55;23.77;;;;;;;21.74;46.08;102036.50;5133151;28;20023;-77
2022/05/05 08:20:15;;;;;;;39.17;25.05;;;;;;;21.55;46.31;102054.28;5132259;28;20122;-77
2022/05/05 08:22:40;;;;;;;40.30;25.90;;;;;;;21.49;46.40;102045.25;5133138;28;20069;-76
2022/05/05 08:30:34;;;;;;;40.30;25.42;;;;;;;21.72;45.82;102052.28;5132132;28;20038;-76
2022/05/05 08:32:59;;;;;;;39.47;26.63;;;;;;;21.72;45.54;102052.28;5114466;28;20023;-76
2022/05/05 08:35:27;;;;;;;34.38;24.08;;;;;;;21.65;46.09;102066.09;5132848;28;20332;-77
2022/05/05 08:37:53;;;;;;;36.38;24.67;;;;;;;21.48;46.31;102064.56;5132190;28;20083;-76
2022/05/05 08:40:23;;;;;;;38.58;25.00;;;;;;;21.32;48.45;102064.41;5131570;28;20438;-77
2022/05/05 08:42:48;;;;;;;41.45;26.58;;;;;;;21.39;48.32;102066.09;5113868;28;20071;-76
2022/05/05 08:45:14;;;;;;;45.72;26.08;;;;;;;21.45;47.41;102073.25;5132832;28;20031;-76
2022/05/05 08:47:42;;;;;;;40.17;25.00;;;;;;;21.47;47.51;102073.81;5131879;27;20049;-76
2022/05/05 08:50:09;;;;;;;41.67;26.80;;;;;;;21.57;48.89;102073.91;5132763;28;20027;-76
2022/05/05 08:52:40;;;;;;;42.78;24.70;;;;;;;21.68;46.31;102078.34;5132690;28;20027;-76
2022/05/05 08:55:06;;;;;;;39.72;25.65;;;;;;;21.78;46.53;102064.03;5131684;28;20031;-76
2022/05/05 09:00:53;;;;;;;40.25;24.45;;;;;;;21.98;45.40;102077.00;5132193;27;20543;-77
2022/05/05 09:03:19;;;;;;;38.30;23.92;;;;;;;21.74;45.59;102074.63;5132486;28;20027;-76
2022/05/05 09:05:44;;;;;;;39.80;25.52;;;;;;;21.74;47.57;102076.53;5131561;28;20050;-76
2022/05/05 09:08:26;;;;;;;35.67;24.23;;;;;;;21.83;46.36;102078.50;5132412;28;20391;-76
2022/05/05 09:10:54;;;;;;;43.13;26.52;;;;;;;21.89;46.31;102084.81;5131506;28;20054;-76
2022/05/05 09:13:27;;;;;;;37.33;24.77;;;;;;;21.91;46.20;102077.22;5132478;28;20380;-76
2022/05/05 09:15:53;;;;;;;41.60;27.30;;;;;;;21.64;46.07;102079.97;5132314;28;20035;-76
2022/05/05 09:18:30;;;;;;;43.03;27.98;;;;;;;21.43;47.37;102073.50;5113327;28;20031;-77
2022/05/05 09:20:59;;;;;;;49.42;28.92;;;;;;;21.37;46.56;102079.13;5132281;28;20034;-77
2022/05/05 09:23:32;;;;;;;42.80;27.00;;;;;;;21.81;46.04;102082.56;5131414;28;20216;-76
2022/05/05 09:25:59;;;;;;;42.17;27.42;;;;;;;22.14;44.72;102089.69;5132181;28;20076;-76
2022/05/05 09:28:35;;;;;;;38.55;26.13;;;;;;;22.42;44.14;102085.81;5131588;28;20027;-76
2022/05/05 09:31:04;;;;;;;45.15;28.17;;;;;;;22.63;43.96;102087.56;5113803;28;20374;-76
2022/05/05 09:33:38;;;;;;;41.40;26.52;;;;;;;23.01;44.47;102096.50;5132056;28;20032;-77
2022/05/05 09:36:05;;;;;;;41.08;28.33;;;;;;;23.04;43.83;102101.44;5131231;28;20476;-76
2022/05/05 09:38:56;;;;;;;43.42;28.35;;;;;;;23.30;44.17;102102.34;5113564;28;20472;-77
2022/05/05 09:41:25;;;;;;;42.05;27.38;;;;;;;23.26;42.98;102102.06;5130967;28;20471;-77
2022/05/05 09:43:54;;;;;;;39.90;26.88;;;;;;;23.00;42.98;102097.59;5131908;28;20111;-76
2022/05/05 09:46:22;;;;;;;42.70;27.08;;;;;;;23.22;42.28;102106.44;5131089;28;20118;-76
2022/05/05 09:48:50;;;;;;;45.88;28.88;;;;;;;23.14;42.75;102099.59;5131845;27;20069;-77
2022/05/05 09:51:16;;;;;;;46.88;28.50;;;;;;;23.05;42.48;102106.63;5131955;28;20030;-76
2022/05/05 09:59:17;;;;;;;42.40;28.25;;;;;;;23.14;42.02;102109.69;5131404;28;20081;-76
2022/05/05 10:01:50;;;;;;;43.08;29.90;;;;;;;23.11;42.09;102111.00;5131751;28;20110;-77
2022/05/05 10:04:17;;;;;;;;;;;;;;;23.45;42.58;102113.31;5131378;28;20043;-78
2022/05/05 10:06:43;;;;;;;44.67;27.35;;;;;;;23.57;41.30;102108.44;5131662;28;19927;-76
2022/05/05 10:09:13;;;;;;;38.58;28.58;;;;;;;23.78;41.06;102122.97;5113241;28;20525;-77
2022/05/05 10:11:40;;;;;;;44.53;29.90;;;;;;;23.70;41.30;102107.91;5113044;28;20035;-77
2022/05/05 10:14:08;;;;;;;44.83;29.15;;;;;;;23.73;40.87;102112.03;5135118;28;20539;-77
2022/05/05 10:16:35;;;;;;;42.05;29.90;;;;;;;23.90;40.25;102118.06;5134333;28;20483;-77
2022/05/05 10:19:04;;;;;;;41.15;29.40;;;;;;;24.02;39.21;102110.44;5116683;28;20019;-76
2022/05/05 10:21:40;;;;;;;43.92;29.85;;;;;;;24.00;40.15;102098.13;5135266;28;20056;-76
2022/05/05 10:24:11;;;;;;;42.45;29.67;;;;;;;23.92;39.61;102109.59;5134931;28;20043;-77
2022/05/05 10:26:37;;;;;;;45.30;30.45;;;;;;;23.64;40.50;102109.00;5116694;28;20508;-76
2022/05/05 10:29:03;;;;;;;46.60;30.70;;;;;;;23.63;41.18;102103.81;5134198;28;20126;-77
2022/05/05 10:31:31;;;;;;;42.85;30.27;;;;;;;23.84;41.69;102108.22;5134953;28;20023;-77
2022/05/05 10:34:06;;;;;;;46.80;30.67;;;;;;;24.06;40.84;102105.22;5133968;28;20043;-76
2022/05/05 10:36:33;;;;;;;40.92;30.17;;;;;;;24.01;40.63;102103.31;5134837;28;20470;-76
2022/05/05 10:38:58;;;;;;;41.13;29.30;;;;;;;24.06;38.75;102099.75;5134730;28;20023;-77
2022/05/05 10:41:30;;;;;;;40.38;30.92;;;;;;;24.16;39.54;102109.88;5134072;28;20039;-77
2022/05/05 10:44:27;;;;;;;43.88;33.72;;;;;;;23.98;41.30;102113.94;5134762;28;20065;-76
2022/05/05 10:46:57;;;;;;;41.40;29.27;;;;;;;24.16;38.96;102091.53;5093089;28;20039;-76
2022/05/05 10:49:39;;;;;;;43.78;32.78;;;;;;;24.53;38.99;102102.19;5134689;28;20095;-76
2022/05/05 10:52:10;;;;;;;40.33;29.58;;;;;;;24.98;38.06;102106.72;5133901;28;20050;-76
2022/05/05 10:54:42;;;;;;;39.30;29.48;;;;;;;25.38;37.32;102102.16;5134678;28;20034;-77
2022/05/05 10:57:25;;;;;;;38.80;28.20;;;;;;;24.98;37.89;102109.47;5115553;28;20034;-77
2022/05/05 11:00:09;;;;;;;39.90;28.25;;;;;;;24.85;38.23;102099.06;5134506;28;20075;-77
2022/05/05 11:06:15;;;;;;;36.13;26.98;;;;;;;24.27;38.56;102095.91;5134997;28;20093;-77
2022/05/05 11:08:53;;;;;;;38.35;28.20;;;;;;;24.02;39.58;102112.34;5134522;28;20023;-78
2022/05/05 11:22:46;;;;;;;41.03;28.23;;;;;;;25.94;35.06;102101.78;5132733;27;20522;-77
2022/05/05 11:25:11;;;;;;;36.22;27.17;;;;;;;26.38;34.08;102101.72;5134027;28;20059;-77
2022/05/05 11:27:37;;;;;;;29.80;22.05;;;;;;;26.46;33.59;102097.50;5133157;28;20039;-77
2022/05/05 11:30:03;;;;;;;21.77;17.40;;;;;;;26.18;33.43;102094.44;5134065;28;20383;-77
2022/05/05 11:32:32;;;;;;;34.63;23.98;;;;;;;25.69;34.86;102105.53;5134276;28;20467;-77
2022/05/05 11:34:58;;;;;;;33.92;23.85;;;;;;;25.36;34.14;102101.63;5126610;28;20192;-77
2022/05/05 11:37:29;;;;;;;30.80;21.83;;;;;;;24.99;35.39;102100.16;5133829;28;20079;-77
2022/05/05 11:39:55;;;;;;;31.38;23.95;;;;;;;25.00;36.35;102099.06;5114988;28;20376;-77
2022/05/05 11:42:21;;;;;;;30.02;22.38;;;;;;;24.88;37.13;102095.81;5133853;28;20391;-77
2022/05/05 11:44:48;;;;;;;32.22;23.05;;;;;;;24.65;36.55;102091.78;5132764;28;20047;-76
2022/05/05 11:47:17;;;;;;;34.03;24.10;;;;;;;24.69;36.23;102105.72;5133643;27;20023;-77
2022/05/05 11:49:56;;;;;;;32.42;23.80;;;;;;;24.67;37.14;102094.22;5133685;28;20023;-76
2022/05/05 11:52:24;;;;;;;35.60;24.70;;;;;;;24.69;36.46;102092.03;5114541;28;20129;-76
2022/05/05 11:54:52;;;;;;;32.83;24.33;;;;;;;24.77;36.52;102098.84;5133562;28;20466;-77
2022/05/05 11:57:39;;;;;;;33.22;24.98;;;;;;;24.74;37.67;102097.47;5132793;28;20495;-77
2022/05/05 12:02:52;;;;;;;32.97;24.00;;;;;;;25.16;36.10;102088.06;5132772;28;20037;-76
2022/05/05 12:05:18;;;;;;;31.70;24.23;;;;;;;25.06;36.64;102096.28;5133535;28;20378;-77
2022/05/05 12:07:44;;;;;;;33.47;25.05;;;;;;;25.04;36.01;102093.84;5115021;28;20048;-77
2022/05/05 12:13:31;;;;;;;30.35;23.10;;;;;;;25.64;34.60;102080.88;5133665;28;20042;-76
2022/05/05 12:16:02;;;;;;;30.63;24.43;;;;;;;25.56;35.18;102082.31;5132559;28;20040;-76
2022/05/05 12:18:27;;;;;;;29.52;23.75;;;;;;;25.88;35.32;102086.50;5133203;28;20031;-77
2022/05/05 12:20:52;;;;;;;34.70;24.37;;;;;;;26.08;34.38;102075.38;5114352;28;20130;-78